Beaverton, Canada
Current Conditions -  °F | °C
As of 3:00 AM on Sunday 21 Dec 2014 (Local Time) from CYQA Reporting Station
Overcast Overcast  
Wind Chill: -5°   Ceiling: 7500
Heat Index: -5°   Visibility: 9mi
Dew Point: -7°   Wind: 0mph
Humidity: 86%   Direction: NA
Pressure: 30.24"   Gusts: NA
Location:  44.43°N, 79.15°W
Report Text: CYQA 210800Z AUTO 00000KT 9SM OVC075 M05/M07 A3024 RMK SLP254
Loading
Personal Weather Stations






























Interactive Weather Map New forecast layout! Learn more

10-Day Weather Forecast

Advertisements
Track Severe Weather on mobile